Station Historical Data
Daily Summary for January 7, 2012 Units:  Both    English   Metric
« Previous Day
Next Day »
Daily Weekly Monthly Yearly Custom
  High: Low: Average:
Temperature: 58.0 °F /  14.4 °C 50.7 °F /  10.4 °C 55.1 °F /  12.8 °C
Dew Point: 56.3 °F /  13.5 °C 44.1 °F /  6.7 °C 53.2 °F /  11.8 °C
Humidity: 96% 78% 93%
Wind Speed: 12.0mph /  19.3km/h - 3.2mph /  5.1km/h
Wind Gust: 12.0mph /  19.3km/h - -
Wind- - South
Pressure: 30.10 in /  1019.2 hPa 29.96 in /  1014.4 hPa -
Precipitation: 0.38 in /  9.65 mm    
Historical Graphs
 
 
Tabular Data for January 7, 2012
Time Temperature Dew Point Pressure Wind Wind Speed Wind Gust Humidity Rainfall Rate (Hourly) Conditions
00:00 55.3 °F /  12.9 °C 51.8 °F /  11 °C 29.97in /  1014.8hPa SSE 4.0mph /  6.4km/h 6.0mph /  9.7km/h 88% 0.00in /  0mm
00:01 55.3 °F /  12.9 °C 51.8 °F /  11 °C 29.96in /  1014.4hPa SSE 3.0mph /  4.8km/h 6.0mph /  9.7km/h 88% 0.00in /  0mm
00:06 55.1 °F /  12.8 °C 51.6 °F /  10.9 °C 29.97in /  1014.8hPa SSW 2.0mph /  3.2km/h 4.0mph /  6.4km/h 88% 0.00in /  0mm
00:11 55.0 °F /  12.8 °C 51.5 °F /  10.8 °C 29.97in /  1014.8hPa SSE 4.0mph /  6.4km/h 4.0mph /  6.4km/h 88% 0.00in /  0mm
00:16 55.0 °F /  12.8 °C 51.5 °F /  10.8 °C 29.96in /  1014.4hPa SSE 3.0mph /  4.8km/h 5.0mph /  8km/h 88% 0.00in /  0mm
00:21 54.9 °F /  12.7 °C 51.7 °F /  10.9 °C 29.97in /  1014.8hPa SSE 3.0mph /  4.8km/h 5.0mph /  8km/h 89% 0.00in /  0mm
00:26 54.8 °F /  12.7 °C 51.6 °F /  10.9 °C 29.97in /  1014.8hPa SSE 4.0mph /  6.4km/h 6.0mph /  9.7km/h 89% 0.00in /  0mm
00:31 54.8 °F /  12.7 °C 51.6 °F /  10.9 °C 29.96in /  1014.4hPa SSE 4.0mph /  6.4km/h 6.0mph /  9.7km/h 89% 0.00in /  0mm
00:36 54.7 °F /  12.6 °C 51.5 °F /  10.8 °C 29.96in /  1014.4hPa South 3.0mph /  4.8km/h 5.0mph /  8km/h 89% 0.00in /  0mm
00:41 54.6 °F /  12.6 °C 51.4 °F /  10.8 °C 29.96in /  1014.4hPa SSE 4.0mph /  6.4km/h 5.0mph /  8km/h 89% 0.00in /  0mm
00:46 54.4 °F /  12.4 °C 51.2 °F /  10.7 °C 29.96in /  1014.4hPa South 3.0mph /  4.8km/h 5.0mph /  8km/h 89% 0.00in /  0mm
00:51 54.4 °F /  12.4 °C 51.2 °F /  10.7 °C 29.96in /  1014.4hPa South 5.0mph /  8km/h 5.0mph /  8km/h 89% 0.00in /  0mm
00:56 54.4 °F /  12.4 °C 51.2 °F /  10.7 °C 29.96in /  1014.4hPa SSW 3.0mph /  4.8km/h 5.0mph /  8km/h 89% 0.00in /  0mm
01:01 54.3 °F /  12.4 °C 51.1 °F /  10.6 °C 29.96in /  1014.4hPa SSW 4.0mph /  6.4km/h 4.0mph /  6.4km/h 89% 0.00in /  0mm
01:06 54.2 °F /  12.3 °C 51.0 °F /  10.6 °C 29.96in /  1014.4hPa South 2.0mph /  3.2km/h 5.0mph /  8km/h 89% 0.00in /  0mm
01:11 54.1 °F /  12.3 °C 51.2 °F /  10.7 °C 29.96in /  1014.4hPa SSW 1.0mph /  1.6km/h 3.0mph /  4.8km/h 90% 0.00in /  0mm
01:16 54.0 °F /  12.2 °C 51.1 °F /  10.6 °C 29.96in /  1014.4hPa SSE 1.0mph /  1.6km/h 3.0mph /  4.8km/h 90% 0.00in /  0mm
01:21 54.0 °F /  12.2 °C 51.1 °F /  10.6 °C 29.96in /  1014.4hPa SSE 2.0mph /  3.2km/h 4.0mph /  6.4km/h 90% 0.00in /  0mm
01:26 53.9 °F /  12.2 °C 51.3 °F /  10.7 °C 29.96in /  1014.4hPa SSE 2.0mph /  3.2km/h 6.0mph /  9.7km/h 91% 0.00in /  0mm
01:31 53.8 °F /  12.1 °C 50.9 °F /  10.5 °C 29.96in /  1014.4hPa SSE 2.0mph /  3.2km/h 3.0mph /  4.8km/h 90% 0.00in /  0mm
01:36 53.7 °F /  12.1 °C 51.1 °F /  10.6 °C 29.97in /  1014.8hPa SSE 3.0mph /  4.8km/h 3.0mph /  4.8km/h 91% 0.00in /  0mm
01:41 53.5 °F /  11.9 °C 50.9 °F /  10.5 °C 29.96in /  1014.4hPa SSE 2.0mph /  3.2km/h 3.0mph /  4.8km/h 91% 0.00in /  0mm
01:46 53.5 °F /  11.9 °C 50.9 °F /  10.5 °C 29.96in /  1014.4hPa South 2.0mph /  3.2km/h 3.0mph /  4.8km/h 91% 0.00in /  0mm
01:51 53.4 °F /  11.9 °C 50.8 °F /  10.4 °C 29.97in /  1014.8hPa SE 2.0mph /  3.2km/h 3.0mph /  4.8km/h 91% 0.00in /  0mm
01:56 53.4 °F /  11.9 °C 50.8 °F /  10.4 °C 29.96in /  1014.4hPa South 2.0mph /  3.2km/h 3.0mph /  4.8km/h 91% 0.00in /  0mm
02:01 53.4 °F /  11.9 °C 50.8 °F /  10.4 °C 29.96in /  1014.4hPa SSE 3.0mph /  4.8km/h 3.0mph /  4.8km/h 91% 0.00in /  0mm
02:06 53.0 °F /  11.7 °C 50.5 °F /  10.3 °C 29.96in /  1014.4hPa SSE 3.0mph /  4.8km/h 4.0mph /  6.4km/h 91% 0.00in /  0mm
02:11 52.9 °F /  11.6 °C 50.6 °F /  10.3 °C 29.96in /  1014.4hPa SSE 2.0mph /  3.2km/h 3.0mph /  4.8km/h 92% 0.00in /  0mm
02:16 52.9 °F /  11.6 °C 50.6 °F /  10.3 °C 29.96in /  1014.4hPa SSE 3.0mph /  4.8km/h 3.0mph /  4.8km/h 92% 0.00in /  0mm
02:21 52.8 °F /  11.6 °C 50.5 °F /  10.3 °C 29.97in /  1014.8hPa South 3.0mph /  4.8km/h 4.0mph /  6.4km/h 92% 0.00in /  0mm
02:27 52.8 °F /  11.6 °C 50.5 °F /  10.3 °C 29.97in /  1014.8hPa SSE 2.0mph /  3.2km/h 3.0mph /  4.8km/h 92% 0.00in /  0mm
02:32 52.8 °F /  11.6 °C 50.5 °F /  10.3 °C 29.97in /  1014.8hPa South 5.0mph /  8km/h 5.0mph /  8km/h 92% 0.00in /  0mm
02:37 52.8 °F /  11.6 °C 50.5 °F /  10.3 °C 29.97in /  1014.8hPa SSE 3.0mph /  4.8km/h 3.0mph /  4.8km/h 92% 0.00in /  0mm
02:42 52.7 °F /  11.5 °C 50.7 °F /  10.4 °C 29.97in /  1014.8hPa SSE 1.0mph /  1.6km/h 3.0mph /  4.8km/h 93% 0.00in /  0mm
02:47 52.8 °F /  11.6 °C 50.8 °F /  10.4 °C 29.97in /  1014.8hPa SW 2.0mph /  3.2km/h 3.0mph /  4.8km/h 93% 0.00in /  0mm
02:52 53.1 °F /  11.7 °C 51.1 °F /  10.6 °C 29.97in /  1014.8hPa South 2.0mph /  3.2km/h 4.0mph /  6.4km/h 93% 0.00in /  0mm
02:57 53.4 °F /  11.9 °C 51.4 °F /  10.8 °C 29.97in /  1014.8hPa SSE 3.0mph /  4.8km/h 4.0mph /  6.4km/h 93% 0.00in /  0mm
03:02 53.6 °F /  12 °C 51.3 °F /  10.7 °C 29.97in /  1014.8hPa SSE 2.0mph /  3.2km/h 4.0mph /  6.4km/h 92% 0.00in /  0mm
03:07 53.7 °F /  12.1 °C 51.4 °F /  10.8 °C 29.97in /  1014.8hPa South 2.0mph /  3.2km/h 5.0mph /  8km/h 92% 0.00in /  0mm
03:12 53.7 °F /  12.1 °C 51.4 °F /  10.8 °C 29.97in /  1014.8hPa SSE 2.0mph /  3.2km/h 5.0mph /  8km/h 92% 0.00in /  0mm
03:17 53.9 °F /  12.2 °C 51.9 °F /  11.1 °C 29.97in /  1014.8hPa South 2.0mph /  3.2km/h 6.0mph /  9.7km/h 93% 0.00in /  0mm
03:22 54.1 °F /  12.3 °C 51.8 °F /  11 °C 29.97in /  1014.8hPa SSW 3.0mph /  4.8km/h 5.0mph /  8km/h 92% 0.00in /  0mm
03:27 54.2 °F /  12.3 °C 51.9 °F /  11.1 °C 29.97in /  1014.8hPa SSW 4.0mph /  6.4km/h 7.0mph /  11.3km/h 92% 0.00in /  0mm
03:32 54.3 °F /  12.4 °C 52.0 °F /  11.1 °C 29.97in /  1014.8hPa SSW 1.0mph /  1.6km/h 7.0mph /  11.3km/h 92% 0.00in /  0mm
03:37 54.2 °F /  12.3 °C 51.9 °F /  11.1 °C 29.97in /  1014.8hPa SSE 4.0mph /  6.4km/h 5.0mph /  8km/h 92% 0.00in /  0mm
03:42 54.2 °F /  12.3 °C 51.9 °F /  11.1 °C 29.97in /  1014.8hPa SW 5.0mph /  8km/h 6.0mph /  9.7km/h 92% 0.00in /  0mm
03:47 54.3 °F /  12.4 °C 52.0 °F /  11.1 °C 29.96in /  1014.4hPa SW 4.0mph /  6.4km/h 5.0mph /  8km/h 92% 0.00in /  0mm
03:52 54.6 °F /  12.6 °C 52.6 °F /  11.4 °C 29.96in /  1014.4hPa South 2.0mph /  3.2km/h 4.0mph /  6.4km/h 93% 0.00in /  0mm
03:57 54.7 °F /  12.6 °C 52.4 °F /  11.3 °C 29.96in /  1014.4hPa SW 2.0mph /  3.2km/h 5.0mph /  8km/h 92% 0.00in /  0mm
04:02 54.6 °F /  12.6 °C 52.3 °F /  11.3 °C 29.96in /  1014.4hPa SW 4.0mph /  6.4km/h 6.0mph /  9.7km/h 92% 0.00in /  0mm
04:07 54.6 °F /  12.6 °C 52.3 °F /  11.3 °C 29.96in /  1014.4hPa SW 4.0mph /  6.4km/h 7.0mph /  11.3km/h 92% 0.00in /  0mm
04:12 54.7 °F /  12.6 °C 52.7 °F /  11.5 °C 29.96in /  1014.4hPa SW 2.0mph /  3.2km/h 6.0mph /  9.7km/h 93% 0.00in /  0mm
04:17 54.8 °F /  12.7 °C 52.5 °F /  11.4 °C 29.96in /  1014.4hPa South 2.0mph /  3.2km/h 8.0mph /  12.9km/h 92% 0.00in /  0mm
04:22 54.9 °F /  12.7 °C 52.9 °F /  11.6 °C 29.96in /  1014.4hPa SW 5.0mph /  8km/h 6.0mph /  9.7km/h 93% 0.00in /  0mm
04:28 54.8 °F /  12.7 °C 52.8 °F /  11.6 °C 29.96in /  1014.4hPa SW 4.0mph /  6.4km/h 4.0mph /  6.4km/h 93% 0.00in /  0mm
04:33 55.0 °F /  12.8 °C 53.0 °F /  11.7 °C 29.96in /  1014.4hPa SW 5.0mph /  8km/h 5.0mph /  8km/h 93% 0.00in /  0mm
04:38 55.3 °F /  12.9 °C 53.3 °F /  11.8 °C 29.96in /  1014.4hPa SSW 3.0mph /  4.8km/h 8.0mph /  12.9km/h 93% 0.00in /  0mm
04:43 55.6 °F /  13.1 °C 53.6 °F /  12 °C 29.96in /  1014.4hPa SSW 4.0mph /  6.4km/h 8.0mph /  12.9km/h 93% 0.00in /  0mm
04:48 55.9 °F /  13.3 °C 53.9 °F /  12.2 °C 29.96in /  1014.4hPa SSW 4.0mph /  6.4km/h 8.0mph /  12.9km/h 93% 0.00in /  0mm
04:53 56.1 °F /  13.4 °C 54.1 °F /  12.3 °C 29.96in /  1014.4hPa WSW 4.0mph /  6.4km/h 8.0mph /  12.9km/h 93% 0.00in /  0mm
04:58 56.3 °F /  13.5 °C 54.0 °F /  12.2 °C 29.96in /  1014.4hPa SW 7.0mph /  11.3km/h 9.0mph /  14.5km/h 92% 0.00in /  0mm
05:03 56.5 °F /  13.6 °C 54.5 °F /  12.5 °C 29.96in /  1014.4hPa SW 6.0mph /  9.7km/h 11.0mph /  17.7km/h 93% 0.00in /  0mm
05:08 56.5 °F /  13.6 °C 54.5 °F /  12.5 °C 29.96in /  1014.4hPa SW 8.0mph /  12.9km/h 8.0mph /  12.9km/h 93% 0.18in /  4.57mm
05:13 56.6 °F /  13.7 °C 54.6 °F /  12.6 °C 29.96in /  1014.4hPa SW 4.0mph /  6.4km/h 7.0mph /  11.3km/h 93% 0.06in /  1.52mm
05:18 56.5 °F /  13.6 °C 54.5 °F /  12.5 °C 29.96in /  1014.4hPa WSW 5.0mph /  8km/h 6.0mph /  9.7km/h 93% 0.04in /  1.02mm
05:23 56.5 °F /  13.6 °C 54.5 °F /  12.5 °C 29.96in /  1014.4hPa WSW 3.0mph /  4.8km/h 8.0mph /  12.9km/h 93% 0.00in /  0mm
05:28 56.5 °F /  13.6 °C 54.5 °F /  12.5 °C 29.96in /  1014.4hPa SW 6.0mph /  9.7km/h 7.0mph /  11.3km/h 93% 0.00in /  0mm
05:33 56.4 °F /  13.6 °C 54.4 °F /  12.4 °C 29.96in /  1014.4hPa SW 2.0mph /  3.2km/h 5.0mph /  8km/h 93% 0.00in /  0mm
05:38 56.4 °F /  13.6 °C 54.4 °F /  12.4 °C 29.96in /  1014.4hPa SW 4.0mph /  6.4km/h 5.0mph /  8km/h 93% 0.00in /  0mm
05:43 56.5 °F /  13.6 °C 54.5 °F /  12.5 °C 29.96in /  1014.4hPa South 3.0mph /  4.8km/h 7.0mph /  11.3km/h 93% 0.00in /  0mm
05:48 56.6 °F /  13.7 °C 54.9 °F /  12.7 °C 29.96in /  1014.4hPa SW 6.0mph /  9.7km/h 6.0mph /  9.7km/h 94% 0.00in /  0mm
05:53 56.7 °F /  13.7 °C 54.7 °F /  12.6 °C 29.96in /  1014.4hPa SW 6.0mph /  9.7km/h 8.0mph /  12.9km/h 93% 0.00in /  0mm
05:58 56.8 °F /  13.8 °C 54.8 °F /  12.7 °C 29.96in /  1014.4hPa SSW 5.0mph /  8km/h 8.0mph /  12.9km/h 93% 0.00in /  0mm
06:03 56.8 °F /  13.8 °C 54.8 °F /  12.7 °C 29.96in /  1014.4hPa SW 4.0mph /  6.4km/h 8.0mph /  12.9km/h 93% 0.00in /  0mm
06:08 56.7 °F /  13.7 °C 54.7 °F /  12.6 °C 29.96in /  1014.4hPa WSW 5.0mph /  8km/h 8.0mph /  12.9km/h 93% 0.00in /  0mm
06:13 56.7 °F /  13.7 °C 54.7 °F /  12.6 °C 29.97in /  1014.8hPa WSW 2.0mph /  3.2km/h 6.0mph /  9.7km/h 93% 0.00in /  0mm
06:18 56.7 °F /  13.7 °C 54.7 °F /  12.6 °C 29.97in /  1014.8hPa WSW 2.0mph /  3.2km/h 6.0mph /  9.7km/h 93% 0.00in /  0mm
06:23 56.7 °F /  13.7 °C 54.7 °F /  12.6 °C 29.97in /  1014.8hPa SW 3.0mph /  4.8km/h 5.0mph /  8km/h 93% 0.00in /  0mm
06:28 56.7 °F /  13.7 °C 54.7 °F /  12.6 °C 29.97in /  1014.8hPa WSW 3.0mph /  4.8km/h 4.0mph /  6.4km/h 93% 0.00in /  0mm
06:33 56.7 °F /  13.7 °C 54.7 °F /  12.6 °C 29.97in /  1014.8hPa WSW 2.0mph /  3.2km/h 4.0mph /  6.4km/h 93% 0.00in /  0mm
06:38 56.7 °F /  13.7 °C 55.0 °F /  12.8 °C 29.97in /  1014.8hPa WSW 2.0mph /  3.2km/h 4.0mph /  6.4km/h 94% 0.00in /  0mm
06:43 56.7 °F /  13.7 °C 55.0 °F /  12.8 °C 29.97in /  1014.8hPa SW 6.0mph /  9.7km/h 6.0mph /  9.7km/h 94% 0.00in /  0mm
06:48 56.8 °F /  13.8 °C 55.1 °F /  12.8 °C 29.97in /  1014.8hPa SW 5.0mph /  8km/h 6.0mph /  9.7km/h 94% 0.00in /  0mm
06:53 56.8 °F /  13.8 °C 55.1 °F /  12.8 °C 29.97in /  1014.8hPa SSW 3.0mph /  4.8km/h 6.0mph /  9.7km/h 94% 0.00in /  0mm
06:58 56.8 °F /  13.8 °C 55.1 °F /  12.8 °C 29.97in /  1014.8hPa SW 5.0mph /  8km/h 7.0mph /  11.3km/h 94% 0.00in /  0mm
07:03 56.9 °F /  13.8 °C 54.9 °F /  12.7 °C 29.97in /  1014.8hPa SW 6.0mph /  9.7km/h 7.0mph /  11.3km/h 93% 0.00in /  0mm
07:08 56.9 °F /  13.8 °C 55.2 °F /  12.9 °C 29.97in /  1014.8hPa SSW 7.0mph /  11.3km/h 8.0mph /  12.9km/h 94% 0.00in /  0mm
07:13 56.9 °F /  13.8 °C 55.2 °F /  12.9 °C 29.97in /  1014.8hPa SSW 6.0mph /  9.7km/h 9.0mph /  14.5km/h 94% 0.00in /  0mm
07:18 56.8 °F /  13.8 °C 55.1 °F /  12.8 °C 29.98in /  1015.1hPa SW 3.0mph /  4.8km/h 7.0mph /  11.3km/h 94% 0.00in /  0mm
07:23 56.8 °F /  13.8 °C 55.1 °F /  12.8 °C 29.98in /  1015.1hPa SW 3.0mph /  4.8km/h 8.0mph /  12.9km/h 94% 0.00in /  0mm
07:28 56.8 °F /  13.8 °C 54.8 °F /  12.7 °C 29.98in /  1015.1hPa SW 5.0mph /  8km/h 8.0mph /  12.9km/h 93% 0.00in /  0mm
07:33 56.8 °F /  13.8 °C 54.8 °F /  12.7 °C 29.98in /  1015.1hPa SW 4.0mph /  6.4km/h 8.0mph /  12.9km/h 93% 0.00in /  0mm
07:39 56.7 °F /  13.7 °C 55.0 °F /  12.8 °C 29.98in /  1015.1hPa SW 4.0mph /  6.4km/h 7.0mph /  11.3km/h 94% 0.00in /  0mm
07:44 56.6 °F /  13.7 °C 54.9 °F /  12.7 °C 29.98in /  1015.1hPa SW 6.0mph /  9.7km/h 6.0mph /  9.7km/h 94% 0.00in /  0mm
07:49 56.5 °F /  13.6 °C 54.8 °F /  12.7 °C 29.98in /  1015.1hPa SSW 5.0mph /  8km/h 6.0mph /  9.7km/h 94% 0.00in /  0mm
07:54 56.4 °F /  13.6 °C 54.7 °F /  12.6 °C 29.98in /  1015.1hPa SW 3.0mph /  4.8km/h 5.0mph /  8km/h 94% 0.00in /  0mm
07:59 56.3 °F /  13.5 °C 54.6 °F /  12.6 °C 29.98in /  1015.1hPa SW 3.0mph /  4.8km/h 6.0mph /  9.7km/h 94% 0.04in /  1.02mm
08:04 56.3 °F /  13.5 °C 54.6 °F /  12.6 °C 29.98in /  1015.1hPa WSW 4.0mph /  6.4km/h 6.0mph /  9.7km/h 94% 0.08in /  2.03mm
08:09 56.3 °F /  13.5 °C 54.9 °F /  12.7 °C 29.98in /  1015.1hPa SW 1.0mph /  1.6km/h 5.0mph /  8km/h 95% 0.11in /  2.79mm
08:14 56.2 °F /  13.4 °C 54.8 °F /  12.7 °C 29.98in /  1015.1hPa West 2.0mph /  3.2km/h 4.0mph /  6.4km/h 95% 0.09in /  2.29mm
08:19 56.2 °F /  13.4 °C 54.8 °F /  12.7 °C 29.99in /  1015.5hPa WNW 2.0mph /  3.2km/h 5.0mph /  8km/h 95% 0.05in /  1.27mm
08:24 56.1 °F /  13.4 °C 54.7 °F /  12.6 °C 29.99in /  1015.5hPa WSW 3.0mph /  4.8km/h 3.0mph /  4.8km/h 95% 0.04in /  1.02mm
08:29 56.0 °F /  13.3 °C 54.6 °F /  12.6 °C 29.99in /  1015.5hPa WSW 1.0mph /  1.6km/h 4.0mph /  6.4km/h 95% 0.00in /  0mm
08:34 56.1 °F /  13.4 °C 54.7 °F /  12.6 °C 29.99in /  1015.5hPa SW 2.0mph /  3.2km/h 3.0mph /  4.8km/h 95% 0.00in /  0mm
08:39 56.1 °F /  13.4 °C 54.7 °F /  12.6 °C 29.99in /  1015.5hPa WSW 3.0mph /  4.8km/h 5.0mph /  8km/h 95% 0.00in /  0mm
08:44 56.1 °F /  13.4 °C 54.7 °F /  12.6 °C 30.00in /  1015.8hPa SW 2.0mph /  3.2km/h 2.0mph /  3.2km/h 95% 0.00in /  0mm
08:49 56.1 °F /  13.4 °C 54.7 °F /  12.6 °C 30.00in /  1015.8hPa SW 3.0mph /  4.8km/h 3.0mph /  4.8km/h 95% 0.00in /  0mm
08:54 56.1 °F /  13.4 °C 54.7 °F /  12.6 °C 30.00in /  1015.8hPa NW 2.0mph /  3.2km/h 3.0mph /  4.8km/h 95% 0.00in /  0mm
08:59 56.0 °F /  13.3 °C 54.6 °F /  12.6 °C 30.00in /  1015.8hPa West 2.0mph /  3.2km/h 2.0mph /  3.2km/h 95% 0.00in /  0mm
09:04 56.1 °F /  13.4 °C 54.7 °F /  12.6 °C 30.00in /  1015.8hPa WSW 1.0mph /  1.6km/h 2.0mph /  3.2km/h 95% 0.00in /  0mm
09:09 56.1 °F /  13.4 °C 54.7 °F /  12.6 °C 30.01in /  1016.1hPa SW 3.0mph /  4.8km/h 4.0mph /  6.4km/h 95% 0.00in /  0mm
09:14 56.0 °F /  13.3 °C 54.6 °F /  12.6 °C 30.01in /  1016.1hPa SW 1.0mph /  1.6km/h 4.0mph /  6.4km/h 95% 0.00in /  0mm
09:19 55.9 °F /  13.3 °C 54.5 °F /  12.5 °C 30.02in /  1016.5hPa SW 5.0mph /  8km/h 5.0mph /  8km/h 95% 0.00in /  0mm
09:24 56.0 °F /  13.3 °C 54.6 °F /  12.6 °C 30.02in /  1016.5hPa SW 4.0mph /  6.4km/h 5.0mph /  8km/h 95% 0.00in /  0mm
09:29 56.0 °F /  13.3 °C 54.6 °F /  12.6 °C 30.02in /  1016.5hPa WSW 7.0mph /  11.3km/h 9.0mph /  14.5km/h 95% 0.00in /  0mm
09:34 56.0 °F /  13.3 °C 54.6 °F /  12.6 °C 30.02in /  1016.5hPa WSW 4.0mph /  6.4km/h 7.0mph /  11.3km/h 95% 0.00in /  0mm
09:39 56.0 °F /  13.3 °C 54.6 °F /  12.6 °C 30.01in /  1016.1hPa WSW 3.0mph /  4.8km/h 6.0mph /  9.7km/h 95% 0.07in /  1.78mm
09:44 56.0 °F /  13.3 °C 54.6 °F /  12.6 °C 30.01in /  1016.1hPa West 1.0mph /  1.6km/h 5.0mph /  8km/h 95% 0.17in /  4.32mm
09:49 55.9 °F /  13.3 °C 54.5 °F /  12.5 °C 30.01in /  1016.1hPa WSW 3.0mph /  4.8km/h 6.0mph /  9.7km/h 95% 0.10in /  2.54mm
09:54 56.0 °F /  13.3 °C 54.3 °F /  12.4 °C 30.01in /  1016.1hPa WSW 2.0mph /  3.2km/h 7.0mph /  11.3km/h 94% 0.05in /  1.27mm
09:59 56.1 °F /  13.4 °C 54.4 °F /  12.4 °C 30.01in /  1016.1hPa WSW 3.0mph /  4.8km/h 4.0mph /  6.4km/h 94% 0.04in /  1.02mm
10:04 56.2 °F /  13.4 °C 54.5 °F /  12.5 °C 30.01in /  1016.1hPa West 2.0mph /  3.2km/h 3.0mph /  4.8km/h 94% 0.00in /  0mm
10:09 56.3 °F /  13.5 °C 54.6 °F /  12.6 °C 30.01in /  1016.1hPa WSW 1.0mph /  1.6km/h 3.0mph /  4.8km/h 94% 0.00in /  0mm
10:14 56.4 °F /  13.6 °C 54.7 °F /  12.6 °C 30.01in /  1016.1hPa WSW 2.0mph /  3.2km/h 4.0mph /  6.4km/h 94% 0.00in /  0mm
10:19 56.9 °F /  13.8 °C 55.5 °F /  13.1 °C 30.02in /  1016.5hPa WSW 3.0mph /  4.8km/h 3.0mph /  4.8km/h 95% 0.00in /  0mm
10:24 57.3 °F /  14.1 °C 55.6 °F /  13.1 °C 30.02in /  1016.5hPa WSW 6.0mph /  9.7km/h 8.0mph /  12.9km/h 94% 0.00in /  0mm
10:29 57.6 °F /  14.2 °C 55.9 °F /  13.3 °C 30.03in /  1016.8hPa WSW 5.0mph /  8km/h 8.0mph /  12.9km/h 94% 0.00in /  0mm
10:34 57.6 °F /  14.2 °C 55.6 °F /  13.1 °C 30.03in /  1016.8hPa WSW 4.0mph /  6.4km/h 7.0mph /  11.3km/h 93% 0.00in /  0mm
10:39 57.7 °F /  14.3 °C 55.7 °F /  13.2 °C 30.03in /  1016.8hPa SW 6.0mph /  9.7km/h 6.0mph /  9.7km/h 93% 0.00in /  0mm
10:44 57.6 °F /  14.2 °C 55.6 °F /  13.1 °C 30.03in /  1016.8hPa SSW 4.0mph /  6.4km/h 6.0mph /  9.7km/h 93% 0.00in /  0mm
10:49 57.8 °F /  14.3 °C 55.8 °F /  13.2 °C 30.03in /  1016.8hPa WSW 4.0mph /  6.4km/h 7.0mph /  11.3km/h 93% 0.00in /  0mm
10:54 58.0 °F /  14.4 °C 56.3 °F /  13.5 °C 30.03in /  1016.8hPa WSW 4.0mph /  6.4km/h 7.0mph /  11.3km/h 94% 0.00in /  0mm
10:59 58.0 °F /  14.4 °C 56.0 °F /  13.3 °C 30.03in /  1016.8hPa SW 8.0mph /  12.9km/h 8.0mph /  12.9km/h 93% 0.00in /  0mm
11:04 58.0 °F /  14.4 °C 56.0 °F /  13.3 °C 30.03in /  1016.8hPa SW 4.0mph /  6.4km/h 8.0mph /  12.9km/h 93% 0.00in /  0mm
11:09 57.9 °F /  14.4 °C 55.9 °F /  13.3 °C 30.04in /  1017.2hPa WSW 5.0mph /  8km/h 8.0mph /  12.9km/h 93% 0.00in /  0mm
11:14 57.9 °F /  14.4 °C 55.9 °F /  13.3 °C 30.04in /  1017.2hPa SW 6.0mph /  9.7km/h 7.0mph /  11.3km/h 93% 0.00in /  0mm
11:19 57.8 °F /  14.3 °C 56.1 °F /  13.4 °C 30.04in /  1017.2hPa SW 6.0mph /  9.7km/h 8.0mph /  12.9km/h 94% 0.00in /  0mm
11:24 57.6 °F /  14.2 °C 55.9 °F /  13.3 °C 30.04in /  1017.2hPa WSW 6.0mph /  9.7km/h 7.0mph /  11.3km/h 94% 0.00in /  0mm
11:29 57.5 °F /  14.2 °C 55.8 °F /  13.2 °C 30.04in /  1017.2hPa SW 2.0mph /  3.2km/h 9.0mph /  14.5km/h 94% 0.00in /  0mm
11:34 57.4 °F /  14.1 °C 55.7 °F /  13.2 °C 30.04in /  1017.2hPa WSW 4.0mph /  6.4km/h 4.0mph /  6.4km/h 94% 0.23in /  5.84mm
11:39 57.3 °F /  14.1 °C 55.6 °F /  13.1 °C 30.04in /  1017.2hPa WSW 6.0mph /  9.7km/h 7.0mph /  11.3km/h 94% 0.11in /  2.79mm
11:44 57.1 °F /  13.9 °C 55.4 °F /  13 °C 30.04in /  1017.2hPa WSW 5.0mph /  8km/h 10.0mph /  16.1km/h 94% 0.06in /  1.52mm
11:49 56.9 °F /  13.8 °C 55.2 °F /  12.9 °C 30.04in /  1017.2hPa WSW 5.0mph /  8km/h 9.0mph /  14.5km/h 94% 0.05in /  1.27mm
11:55 56.7 °F /  13.7 °C 55.3 °F /  12.9 °C 30.04in /  1017.2hPa SW 5.0mph /  8km/h 8.0mph /  12.9km/h 95% 0.07in /  1.78mm
12:00 56.6 °F /  13.7 °C 55.2 °F /  12.9 °C 30.04in /  1017.2hPa WSW 2.0mph /  3.2km/h 6.0mph /  9.7km/h 95% 0.15in /  3.81mm
12:05 56.6 °F /  13.7 °C 55.2 °F /  12.9 °C 30.04in /  1017.2hPa WSW 4.0mph /  6.4km/h 5.0mph /  8km/h 95% 0.15in /  3.81mm
12:10 56.5 °F /  13.6 °C 55.1 °F /  12.8 °C 30.03in /  1016.8hPa WSW 5.0mph /  8km/h 6.0mph /  9.7km/h 95% 0.30in /  7.62mm
12:15 56.5 °F /  13.6 °C 55.1 °F /  12.8 °C 30.03in /  1016.8hPa West 3.0mph /  4.8km/h 6.0mph /  9.7km/h 95% 0.19in /  4.83mm
12:20 56.5 °F /  13.6 °C 55.1 °F /  12.8 °C 30.03in /  1016.8hPa SW 4.0mph /  6.4km/h 6.0mph /  9.7km/h 95% 0.13in /  3.3mm
12:25 56.5 °F /  13.6 °C 55.1 °F /  12.8 °C 30.03in /  1016.8hPa SW 4.0mph /  6.4km/h 6.0mph /  9.7km/h 95% 0.09in /  2.29mm
12:30 56.5 °F /  13.6 °C 55.1 °F /  12.8 °C 30.02in /  1016.5hPa SW 4.0mph /  6.4km/h 5.0mph /  8km/h 95% 0.08in /  2.03mm
12:35 56.7 °F /  13.7 °C 55.3 °F /  12.9 °C 30.03in /  1016.8hPa SSW 3.0mph /  4.8km/h 6.0mph /  9.7km/h 95% 0.07in /  1.78mm
12:36 56.7 °F /  13.7 °C 55.3 °F /  12.9 °C 30.03in /  1016.8hPa SSW 4.0mph /  6.4km/h 5.0mph /  8km/h 95% 0.07in /  1.78mm
12:41 56.7 °F /  13.7 °C 55.3 °F /  12.9 °C 30.02in /  1016.5hPa SW 3.0mph /  4.8km/h 6.0mph /  9.7km/h 95% 0.06in /  1.52mm
12:46 56.7 °F /  13.7 °C 55.3 °F /  12.9 °C 30.03in /  1016.8hPa SW 5.0mph /  8km/h 7.0mph /  11.3km/h 95% 0.04in /  1.02mm
12:51 56.6 °F /  13.7 °C 55.2 °F /  12.9 °C 30.03in /  1016.8hPa SW 3.0mph /  4.8km/h 6.0mph /  9.7km/h 95% 0.00in /  0mm
12:56 56.6 °F /  13.7 °C 55.2 °F /  12.9 °C 30.02in /  1016.5hPa WSW 4.0mph /  6.4km/h 7.0mph /  11.3km/h 95% 0.00in /  0mm
13:01 56.6 °F /  13.7 °C 55.2 °F /  12.9 °C 30.02in /  1016.5hPa WSW 5.0mph /  8km/h 5.0mph /  8km/h 95% 0.10in /  2.54mm
13:06 56.6 °F /  13.7 °C 55.2 °F /  12.9 °C 30.02in /  1016.5hPa SW 6.0mph /  9.7km/h 7.0mph /  11.3km/h 95% 0.14in /  3.56mm
13:11 56.7 °F /  13.7 °C 55.3 °F /  12.9 °C 30.02in /  1016.5hPa SW 5.0mph /  8km/h 5.0mph /  8km/h 95% 0.07in /  1.78mm
13:16 56.6 °F /  13.7 °C 55.2 °F /  12.9 °C 30.02in /  1016.5hPa WSW 6.0mph /  9.7km/h 8.0mph /  12.9km/h 95% 0.05in /  1.27mm
13:22 56.5 °F /  13.6 °C 55.1 °F /  12.8 °C 30.02in /  1016.5hPa SSW 6.0mph /  9.7km/h 10.0mph /  16.1km/h 95% 0.00in /  0mm
13:27 56.5 °F /  13.6 °C 55.1 °F /  12.8 °C 30.02in /  1016.5hPa SSW 4.0mph /  6.4km/h 9.0mph /  14.5km/h 95% 0.00in /  0mm
13:32 56.3 °F /  13.5 °C 54.9 °F /  12.7 °C 30.02in /  1016.5hPa SW 12.0mph /  19.3km/h 12.0mph /  19.3km/h 95% 0.18in /  4.57mm
13:37 56.1 °F /  13.4 °C 54.4 °F /  12.4 °C 30.01in /  1016.1hPa SSW 4.0mph /  6.4km/h 12.0mph /  19.3km/h 94% 0.11in /  2.79mm
13:42 56.0 °F /  13.3 °C 54.3 °F /  12.4 °C 30.01in /  1016.1hPa WSW 8.0mph /  12.9km/h 8.0mph /  12.9km/h 94% 0.11in /  2.79mm
13:47 56.0 °F /  13.3 °C 54.3 °F /  12.4 °C 30.01in /  1016.1hPa WSW 6.0mph /  9.7km/h 12.0mph /  19.3km/h 94% 0.06in /  1.52mm
13:52 55.9 °F /  13.3 °C 54.2 °F /  12.3 °C 30.01in /  1016.1hPa WSW 10.0mph /  16.1km/h 10.0mph /  16.1km/h 94% 0.06in /  1.52mm
13:57 55.9 °F /  13.3 °C 54.2 °F /  12.3 °C 30.00in /  1015.8hPa WSW 4.0mph /  6.4km/h 6.0mph /  9.7km/h 94% 0.09in /  2.29mm
14:02 56.0 °F /  13.3 °C 54.3 °F /  12.4 °C 30.00in /  1015.8hPa SW 2.0mph /  3.2km/h 6.0mph /  9.7km/h 94% 0.07in /  1.78mm
14:07 56.1 °F /  13.4 °C 54.7 °F /  12.6 °C 29.99in /  1015.5hPa WSW 3.0mph /  4.8km/h 4.0mph /  6.4km/h 95% 0.04in /  1.02mm
14:12 56.2 °F /  13.4 °C 54.5 °F /  12.5 °C 29.99in /  1015.5hPa WSW 2.0mph /  3.2km/h 4.0mph /  6.4km/h 94% 0.00in /  0mm
14:17 56.5 °F /  13.6 °C 55.1 °F /  12.8 °C 30.00in /  1015.8hPa WSW 2.0mph /  3.2km/h 3.0mph /  4.8km/h 95% 0.00in /  0mm
14:22 56.5 °F /  13.6 °C 54.8 °F /  12.7 °C 30.00in /  1015.8hPa West 2.0mph /  3.2km/h 5.0mph /  8km/h 94% 0.00in /  0mm
14:27 56.6 °F /  13.7 °C 54.9 °F /  12.7 °C 30.00in /  1015.8hPa WSW 5.0mph /  8km/h 5.0mph /  8km/h 94% 0.00in /  0mm
14:32 56.6 °F /  13.7 °C 54.9 °F /  12.7 °C 30.00in /  1015.8hPa SW 2.0mph /  3.2km/h 4.0mph /  6.4km/h 94% 0.00in /  0mm
14:37 56.6 °F /  13.7 °C 54.9 °F /  12.7 °C 30.00in /  1015.8hPa WSW 3.0mph /  4.8km/h 6.0mph /  9.7km/h 94% 0.00in /  0mm
14:42 56.7 °F /  13.7 °C 55.0 °F /  12.8 °C 30.00in /  1015.8hPa SW 3.0mph /  4.8km/h 4.0mph /  6.4km/h 94% 0.00in /  0mm
14:47 56.7 °F /  13.7 °C 55.0 °F /  12.8 °C 30.00in /  1015.8hPa SW 3.0mph /  4.8km/h 3.0mph /  4.8km/h 94% 0.00in /  0mm
14:52 56.7 °F /  13.7 °C 55.0 °F /  12.8 °C 30.00in /  1015.8hPa SSW 4.0mph /  6.4km/h 4.0mph /  6.4km/h 94% 0.00in /  0mm
14:57 56.5 °F /  13.6 °C 54.8 °F /  12.7 °C 30.00in /  1015.8hPa SW 6.0mph /  9.7km/h 7.0mph /  11.3km/h 94% 0.00in /  0mm
15:02 56.3 °F /  13.5 °C 54.6 °F /  12.6 °C 30.00in /  1015.8hPa SW 2.0mph /  3.2km/h 5.0mph /  8km/h 94% 0.00in /  0mm
15:07 56.2 °F /  13.4 °C 54.5 °F /  12.5 °C 30.00in /  1015.8hPa SW 3.0mph /  4.8km/h 4.0mph /  6.4km/h 94% 0.22in /  5.59mm
15:12 56.1 °F /  13.4 °C 54.4 °F /  12.4 °C 30.00in /  1015.8hPa SW 4.0mph /  6.4km/h 4.0mph /  6.4km/h 94% 0.09in /  2.29mm
15:17 56.0 °F /  13.3 °C 54.3 °F /  12.4 °C 30.00in /  1015.8hPa WSW 4.0mph /  6.4km/h 6.0mph /  9.7km/h 94% 0.07in /  1.78mm
15:23 56.0 °F /  13.3 °C 54.3 °F /  12.4 °C 30.01in /  1016.1hPa SW 5.0mph /  8km/h 6.0mph /  9.7km/h 94% 0.07in /  1.78mm
15:28 56.0 °F /  13.3 °C 54.6 °F /  12.6 °C 30.00in /  1015.8hPa SSW 3.0mph /  4.8km/h 5.0mph /  8km/h 95% 0.04in /  1.02mm
15:33 55.9 °F /  13.3 °C 54.2 °F /  12.3 °C 30.00in /  1015.8hPa SW 2.0mph /  3.2km/h 5.0mph /  8km/h 94% 0.00in /  0mm
15:38 55.9 °F /  13.3 °C 54.2 °F /  12.3 °C 30.00in /  1015.8hPa West 1.0mph /  1.6km/h 3.0mph /  4.8km/h 94% 0.00in /  0mm
15:43 55.9 °F /  13.3 °C 54.2 °F /  12.3 °C 30.00in /  1015.8hPa SW 3.0mph /  4.8km/h 3.0mph /  4.8km/h 94% 0.00in /  0mm
15:48 56.0 °F /  13.3 °C 54.3 °F /  12.4 °C 30.01in /  1016.1hPa WSW 5.0mph /  8km/h 5.0mph /  8km/h 94% 0.00in /  0mm
15:53 56.1 °F /  13.4 °C 54.4 °F /  12.4 °C 30.01in /  1016.1hPa SW 3.0mph /  4.8km/h 5.0mph /  8km/h 94% 0.00in /  0mm
15:58 56.3 °F /  13.5 °C 54.9 °F /  12.7 °C 30.02in /  1016.5hPa SSW 2.0mph /  3.2km/h 5.0mph /  8km/h 95% 0.00in /  0mm
16:03 56.2 °F /  13.4 °C 54.8 °F /  12.7 °C 30.02in /  1016.5hPa SW 5.0mph /  8km/h 6.0mph /  9.7km/h 95% 0.00in /  0mm
16:08 56.2 °F /  13.4 °C 54.8 °F /  12.7 °C 30.02in /  1016.5hPa WSW 5.0mph /  8km/h 6.0mph /  9.7km/h 95% 0.00in /  0mm
16:13 56.0 °F /  13.3 °C 54.6 °F /  12.6 °C 30.02in /  1016.5hPa SW 4.0mph /  6.4km/h 8.0mph /  12.9km/h 95% 0.00in /  0mm
16:18 55.8 °F /  13.2 °C 54.4 °F /  12.4 °C 30.02in /  1016.5hPa SW 7.0mph /  11.3km/h 7.0mph /  11.3km/h 95% 0.00in /  0mm
16:24 55.7 °F /  13.2 °C 54.3 °F /  12.4 °C 30.02in /  1016.5hPa WSW 6.0mph /  9.7km/h 6.0mph /  9.7km/h 95% 0.00in /  0mm
16:29 55.6 °F /  13.1 °C 54.2 °F /  12.3 °C 30.02in /  1016.5hPa WSW 6.0mph /  9.7km/h 7.0mph /  11.3km/h 95% 0.00in /  0mm
16:34 55.5 °F /  13.1 °C 54.1 °F /  12.3 °C 30.02in /  1016.5hPa SW 1.0mph /  1.6km/h 4.0mph /  6.4km/h 95% 0.00in /  0mm
16:39 55.5 °F /  13.1 °C 54.1 °F /  12.3 °C 30.02in /  1016.5hPa WSW 3.0mph /  4.8km/h 5.0mph /  8km/h 95% 0.00in /  0mm
16:44 55.4 °F /  13 °C 54.0 °F /  12.2 °C 30.02in /  1016.5hPa SW 3.0mph /  4.8km/h 4.0mph /  6.4km/h 95% 0.00in /  0mm
16:49 55.4 °F /  13 °C 54.0 °F /  12.2 °C 30.02in /  1016.5hPa SW 1.0mph /  1.6km/h 3.0mph /  4.8km/h 95% 0.00in /  0mm
16:54 55.3 °F /  12.9 °C 53.9 °F /  12.2 °C 30.02in /  1016.5hPa WSW 3.0mph /  4.8km/h 3.0mph /  4.8km/h 95% 0.00in /  0mm
16:59 55.3 °F /  12.9 °C 53.9 °F /  12.2 °C 30.02in /  1016.5hPa WSW 1.0mph /  1.6km/h 2.0mph /  3.2km/h 95% 0.00in /  0mm
17:04 55.2 °F /  12.9 °C 53.8 °F /  12.1 °C 30.02in /  1016.5hPa Calm   1.0mph /  1.6km/h 95% 0.00in /  0mm
17:09 55.2 °F /  12.9 °C 53.8 °F /  12.1 °C 30.02in /  1016.5hPa WSW 1.0mph /  1.6km/h 1.0mph /  1.6km/h 95% 0.00in /  0mm
17:14 55.1 °F /  12.8 °C 53.7 °F /  12.1 °C 30.02in /  1016.5hPa Calm   2.0mph /  3.2km/h 95% 0.00in /  0mm
17:19 55.1 °F /  12.8 °C 53.7 °F /  12.1 °C 30.02in /  1016.5hPa SSE 1.0mph /  1.6km/h 1.0mph /  1.6km/h 95% 0.00in /  0mm
17:24 55.0 °F /  12.8 °C 53.6 °F /  12 °C 30.02in /  1016.5hPa South 2.0mph /  3.2km/h 2.0mph /  3.2km/h 95% 0.00in /  0mm
17:29 54.9 °F /  12.7 °C 53.5 °F /  11.9 °C 30.02in /  1016.5hPa Calm   2.0mph /  3.2km/h 95% 0.00in /  0mm
17:34 54.7 °F /  12.6 °C 53.3 °F /  11.8 °C 30.03in /  1016.8hPa Calm     95% 0.00in /  0mm
17:39 54.6 °F /  12.6 °C 53.2 °F /  11.8 °C 30.03in /  1016.8hPa SW 1.0mph /  1.6km/h 1.0mph /  1.6km/h 95% 0.00in /  0mm
17:44 54.6 °F /  12.6 °C 53.2 °F /  11.8 °C 30.03in /  1016.8hPa SW 2.0mph /  3.2km/h 2.0mph /  3.2km/h 95% 0.00in /  0mm
17:49 54.4 °F /  12.4 °C 53.0 °F /  11.7 °C 30.03in /  1016.8hPa SW 1.0mph /  1.6km/h 2.0mph /  3.2km/h 95% 0.00in /  0mm
17:54 54.2 °F /  12.3 °C 52.8 °F /  11.6 °C 30.03in /  1016.8hPa SW 2.0mph /  3.2km/h 2.0mph /  3.2km/h 95% 0.00in /  0mm
17:59 54.2 °F /  12.3 °C 53.1 °F /  11.7 °C 30.03in /  1016.8hPa Calm   1.0mph /  1.6km/h 96% 0.00in /  0mm
18:04 54.1 °F /  12.3 °C 53.0 °F /  11.7 °C 30.03in /  1016.8hPa Calm     96% 0.00in /  0mm
18:09 54.1 °F /  12.3 °C 53.0 °F /  11.7 °C 30.03in /  1016.8hPa Calm     96% 0.00in /  0mm
18:15 54.1 °F /  12.3 °C 53.0 °F /  11.7 °C 30.04in /  1017.2hPa Calm     96% 0.00in /  0mm
18:20 54.0 °F /  12.2 °C 52.9 °F /  11.6 °C 30.04in /  1017.2hPa Calm     96% 0.00in /  0mm
18:25 54.1 °F /  12.3 °C 53.0 °F /  11.7 °C 30.04in /  1017.2hPa Calm   1.0mph /  1.6km/h 96% 0.00in /  0mm
18:30 53.9 °F /  12.2 °C 52.8 °F /  11.6 °C 30.04in /  1017.2hPa SSW 1.0mph /  1.6km/h 1.0mph /  1.6km/h 96% 0.00in /  0mm
18:35 53.8 °F /  12.1 °C 52.7 °F /  11.5 °C 30.04in /  1017.2hPa SSW 1.0mph /  1.6km/h 1.0mph /  1.6km/h 96% 0.00in /  0mm
18:40 53.7 °F /  12.1 °C 52.6 °F /  11.4 °C 30.04in /  1017.2hPa SSE 1.0mph /  1.6km/h 1.0mph /  1.6km/h 96% 0.00in /  0mm
18:45 53.5 °F /  11.9 °C 52.4 °F /  11.3 °C 30.05in /  1017.5hPa SSE 1.0mph /  1.6km/h 1.0mph /  1.6km/h 96% 0.00in /  0mm
18:47 53.5 °F /  11.9 °C 52.4 °F /  11.3 °C 30.05in /  1017.5hPa SSE 1.0mph /  1.6km/h 2.0mph /  3.2km/h 96% 0.00in /  0mm
18:52 53.6 °F /  12 °C 52.5 °F /  11.4 °C 30.05in /  1017.5hPa SSE 1.0mph /  1.6km/h 1.0mph /  1.6km/h 96% 0.00in /  0mm
18:57 53.7 °F /  12.1 °C 52.6 °F /  11.4 °C 30.05in /  1017.5hPa SSE 1.0mph /  1.6km/h 1.0mph /  1.6km/h 96% 0.00in /  0mm
19:02 53.7 °F /  12.1 °C 52.6 °F /  11.4 °C 30.05in /  1017.5hPa SW 1.0mph /  1.6km/h 1.0mph /  1.6km/h 96% 0.00in /  0mm
19:07 53.6 °F /  12 °C 52.5 °F /  11.4 °C 30.05in /  1017.5hPa Calm     96% 0.00in /  0mm
19:12 53.5 °F /  11.9 °C 52.4 °F /  11.3 °C 30.05in /  1017.5hPa Calm     96% 0.00in /  0mm
19:17 53.5 °F /  11.9 °C 52.4 °F /  11.3 °C 30.05in /  1017.5hPa Calm     96% 0.00in /  0mm
19:22 53.6 °F /  12 °C 52.5 °F /  11.4 °C 30.05in /  1017.5hPa Calm     96% 0.00in /  0mm
19:27 53.7 °F /  12.1 °C 52.6 °F /  11.4 °C 30.06in /  1017.8hPa Calm     96% 0.00in /  0mm
19:32 53.7 °F /  12.1 °C 52.6 °F /  11.4 °C 30.05in /  1017.5hPa Calm     96% 0.00in /  0mm
19:38 53.9 °F /  12.2 °C 52.8 °F /  11.6 °C 30.05in /  1017.5hPa North 2.0mph /  3.2km/h 2.0mph /  3.2km/h 96% 0.00in /  0mm
19:43 53.8 °F /  12.1 °C 52.7 °F /  11.5 °C 30.05in /  1017.5hPa North 3.0mph /  4.8km/h 4.0mph /  6.4km/h 96% 0.00in /  0mm
19:48 53.9 °F /  12.2 °C 52.8 °F /  11.6 °C 30.05in /  1017.5hPa NNE 3.0mph /  4.8km/h 4.0mph /  6.4km/h 96% 0.00in /  0mm
19:53 53.9 °F /  12.2 °C 52.8 °F /  11.6 °C 30.05in /  1017.5hPa NNE 2.0mph /  3.2km/h 2.0mph /  3.2km/h 96% 0.00in /  0mm
19:58 54.0 °F /  12.2 °C 52.9 °F /  11.6 °C 30.05in /  1017.5hPa Calm   2.0mph /  3.2km/h 96% 0.00in /  0mm
20:03 54.0 °F /  12.2 °C 52.9 °F /  11.6 °C 30.05in /  1017.5hPa Calm   1.0mph /  1.6km/h 96% 0.00in /  0mm
20:08 53.9 °F /  12.2 °C 52.8 °F /  11.6 °C 30.05in /  1017.5hPa NNE 2.0mph /  3.2km/h 2.0mph /  3.2km/h 96% 0.00in /  0mm
20:13 53.8 °F /  12.1 °C 52.7 °F /  11.5 °C 30.06in /  1017.8hPa North 2.0mph /  3.2km/h 2.0mph /  3.2km/h 96% 0.00in /  0mm
20:18 53.8 °F /  12.1 °C 52.7 °F /  11.5 °C 30.06in /  1017.8hPa Calm   1.0mph /  1.6km/h 96% 0.00in /  0mm
20:23 53.8 °F /  12.1 °C 52.7 °F /  11.5 °C 30.06in /  1017.8hPa NNE 3.0mph /  4.8km/h 3.0mph /  4.8km/h 96% 0.00in /  0mm
20:28 53.8 °F /  12.1 °C 52.7 °F /  11.5 °C 30.07in /  1018.2hPa North 1.0mph /  1.6km/h 2.0mph /  3.2km/h 96% 0.00in /  0mm
20:33 53.7 °F /  12.1 °C 52.6 °F /  11.4 °C 30.07in /  1018.2hPa NE 4.0mph /  6.4km/h 4.0mph /  6.4km/h 96% 0.00in /  0mm
20:38 53.8 °F /  12.1 °C 52.7 °F /  11.5 °C 30.07in /  1018.2hPa NNE 2.0mph /  3.2km/h 3.0mph /  4.8km/h 96% 0.00in /  0mm
20:43 53.7 °F /  12.1 °C 52.6 °F /  11.4 °C 30.07in /  1018.2hPa North 2.0mph /  3.2km/h 2.0mph /  3.2km/h 96% 0.00in /  0mm
20:48 53.7 °F /  12.1 °C 52.6 °F /  11.4 °C 30.07in /  1018.2hPa NNE 2.0mph /  3.2km/h 3.0mph /  4.8km/h 96% 0.00in /  0mm
20:53 53.6 °F /  12 °C 52.5 °F /  11.4 °C 30.07in /  1018.2hPa NNE 2.0mph /  3.2km/h 5.0mph /  8km/h 96% 0.00in /  0mm
20:58 53.6 °F /  12 °C 52.5 °F /  11.4 °C 30.07in /  1018.2hPa NE 3.0mph /  4.8km/h 3.0mph /  4.8km/h 96% 0.00in /  0mm
21:03 53.4 °F /  11.9 °C 52.3 °F /  11.3 °C 30.07in /  1018.2hPa NE 2.0mph /  3.2km/h 4.0mph /  6.4km/h 96% 0.00in /  0mm
21:08 53.4 °F /  11.9 °C 52.3 °F /  11.3 °C 30.07in /  1018.2hPa NNE 1.0mph /  1.6km/h 5.0mph /  8km/h 96% 0.00in /  0mm
21:13 53.4 °F /  11.9 °C 52.3 °F /  11.3 °C 30.07in /  1018.2hPa NNE 3.0mph /  4.8km/h 3.0mph /  4.8km/h 96% 0.00in /  0mm
21:18 53.3 °F /  11.8 °C 52.2 °F /  11.2 °C 30.07in /  1018.2hPa NNE 4.0mph /  6.4km/h 4.0mph /  6.4km/h 96% 0.00in /  0mm
21:23 53.3 °F /  11.8 °C 52.2 °F /  11.2 °C 30.07in /  1018.2hPa NNE 2.0mph /  3.2km/h 5.0mph /  8km/h 96% 0.00in /  0mm
21:29 53.2 °F /  11.8 °C 51.8 °F /  11 °C 30.08in /  1018.5hPa NNE 2.0mph /  3.2km/h 5.0mph /  8km/h 95% 0.00in /  0mm
21:34 53.2 °F /  11.8 °C 51.8 °F /  11 °C 30.08in /  1018.5hPa North 1.0mph /  1.6km/h 1.0mph /  1.6km/h 95% 0.00in /  0mm
21:39 53.2 °F /  11.8 °C 51.8 °F /  11 °C 30.08in /  1018.5hPa NNE 1.0mph /  1.6km/h 2.0mph /  3.2km/h 95% 0.00in /  0mm
21:44 53.2 °F /  11.8 °C 51.8 °F /  11 °C 30.08in /  1018.5hPa NE 2.0mph /  3.2km/h 2.0mph /  3.2km/h 95% 0.00in /  0mm
21:49 53.1 °F /  11.7 °C 51.7 °F /  10.9 °C 30.08in /  1018.5hPa NE 2.0mph /  3.2km/h 4.0mph /  6.4km/h 95% 0.00in /  0mm
21:54 53.1 °F /  11.7 °C 51.4 °F /  10.8 °C 30.08in /  1018.5hPa NE 4.0mph /  6.4km/h 5.0mph /  8km/h 94% 0.00in /  0mm
21:59 53.2 °F /  11.8 °C 51.5 °F /  10.8 °C 30.08in /  1018.5hPa NNE 2.0mph /  3.2km/h 3.0mph /  4.8km/h 94% 0.00in /  0mm
22:05 53.0 °F /  11.7 °C 51.0 °F /  10.6 °C 30.09in /  1018.8hPa ENE 5.0mph /  8km/h 5.0mph /  8km/h 93% 0.00in /  0mm
22:10 53.0 °F /  11.7 °C 50.7 °F /  10.4 °C 30.09in /  1018.8hPa ENE 1.0mph /  1.6km/h 4.0mph /  6.4km/h 92% 0.00in /  0mm
22:15 53.0 °F /  11.7 °C 50.5 °F /  10.3 °C 30.09in /  1018.8hPa NNE 3.0mph /  4.8km/h 6.0mph /  9.7km/h 91% 0.00in /  0mm
22:21 52.9 °F /  11.6 °C 50.0 °F /  10 °C 30.08in /  1018.5hPa NE 3.0mph /  4.8km/h 5.0mph /  8km/h 90% 0.00in /  0mm
22:26 52.8 °F /  11.6 °C 50.2 °F /  10.1 °C 30.09in /  1018.8hPa NNE 5.0mph /  8km/h 6.0mph /  9.7km/h 91% 0.00in /  0mm
22:32 52.7 °F /  11.5 °C 49.8 °F /  9.9 °C 30.09in /  1018.8hPa NE 2.0mph /  3.2km/h 6.0mph /  9.7km/h 90% 0.00in /  0mm
22:37 52.6 °F /  11.4 °C 49.8 °F /  9.9 °C 30.09in /  1018.8hPa NE 6.0mph /  9.7km/h 6.0mph /  9.7km/h 90% 0.00in /  0mm
22:42 52.5 °F /  11.4 °C 49.7 °F /  9.8 °C 30.09in /  1018.8hPa NE 3.0mph /  4.8km/h 7.0mph /  11.3km/h 90% 0.00in /  0mm
22:47 52.6 °F /  11.4 °C 49.5 °F /  9.7 °C 30.09in /  1018.8hPa NE 4.0mph /  6.4km/h 7.0mph /  11.3km/h 89% 0.00in /  0mm
22:52 52.6 °F /  11.4 °C 49.2 °F /  9.6 °C 30.09in /  1018.8hPa NNE 4.0mph /  6.4km/h 6.0mph /  9.7km/h 88% 0.00in /  0mm
22:57 52.4 °F /  11.3 °C 49.3 °F /  9.6 °C 30.09in /  1018.8hPa North 4.0mph /  6.4km/h 5.0mph /  8km/h 89% 0.00in /  0mm
23:02 52.3 °F /  11.3 °C 48.9 °F /  9.4 °C 30.09in /  1018.8hPa NE 4.0mph /  6.4km/h 7.0mph /  11.3km/h 88% 0.00in /  0mm
23:07 52.2 °F /  11.2 °C 48.5 °F /  9.2 °C 30.09in /  1018.8hPa NE 3.0mph /  4.8km/h 6.0mph /  9.7km/h 87% 0.00in /  0mm
23:12 52.2 °F /  11.2 °C 48.2 °F /  9 °C 30.09in /  1018.8hPa NE 3.0mph /  4.8km/h 7.0mph /  11.3km/h 86% 0.00in /  0mm
23:18 52.0 °F /  11.1 °C 48.0 °F /  8.9 °C 30.09in /  1018.8hPa NNW 3.0mph /  4.8km/h 7.0mph /  11.3km/h 86% 0.00in /  0mm
23:23 51.9 °F /  11.1 °C 48.2 °F /  9 °C 30.09in /  1018.8hPa NNE 6.0mph /  9.7km/h 9.0mph /  14.5km/h 87% 0.00in /  0mm
23:28 51.8 °F /  11 °C 48.1 °F /  8.9 °C 30.10in /  1019.2hPa NE 8.0mph /  12.9km/h 10.0mph /  16.1km/h 87% 0.00in /  0mm
23:33 51.8 °F /  11 °C 47.8 °F /  8.8 °C 30.10in /  1019.2hPa NNE 2.0mph /  3.2km/h 7.0mph /  11.3km/h 86% 0.00in /  0mm
23:38 51.6 °F /  10.9 °C 47.9 °F /  8.8 °C 30.10in /  1019.2hPa NNE 3.0mph /  4.8km/h 6.0mph /  9.7km/h 87% 0.00in /  0mm
23:43 51.3 °F /  10.7 °C 47.0 °F /  8.3 °C 30.10in /  1019.2hPa North 4.0mph /  6.4km/h 7.0mph /  11.3km/h 85% 0.00in /  0mm
23:48 51.1 °F /  10.6 °C 45.2 °F /  7.3 °C 30.10in /  1019.2hPa NNE 6.0mph /  9.7km/h 8.0mph /  12.9km/h 80% 0.00in /  0mm
23:53 50.8 °F /  10.4 °C 44.9 °F /  7.2 °C 30.10in /  1019.2hPa NNE 4.0mph /  6.4km/h 6.0mph /  9.7km/h 80% 0.00in /  0mm
23:58 50.7 °F /  10.4 °C 44.1 °F /  6.7 °C 30.10in /  1019.2hPa NE 6.0mph /  9.7km/h 8.0mph /  12.9km/h 78% 0.00in /  0mm
Compliments of Weather Underground